sensor_id;sensor_type;location;lat;lon;timestamp;P1;durP1;ratioP1;P2;durP2;ratioP2
51987;SDS011;38003;52.012;4.346;2023-03-04T00:00:36;11.57;;;2.13;;
51987;SDS011;38003;52.012;4.346;2023-03-04T00:03:08;8.77;;;2.23;;
51987;SDS011;38003;52.012;4.346;2023-03-04T00:05:37;7.57;;;1.50;;
51987;SDS011;38003;52.012;4.346;2023-03-04T00:08:05;10.97;;;1.87;;
51987;SDS011;38003;52.012;4.346;2023-03-04T00:10:33;14.00;;;2.63;;
51987;SDS011;38003;52.012;4.346;2023-03-04T00:13:01;13.90;;;2.43;;
51987;SDS011;38003;52.012;4.346;2023-03-04T00:15:29;12.60;;;1.90;;
51987;SDS011;38003;52.012;4.346;2023-03-04T00:17:59;13.23;;;2.10;;
51987;SDS011;38003;52.012;4.346;2023-03-04T00:20:27;10.47;;;2.20;;
51987;SDS011;38003;52.012;4.346;2023-03-04T00:22:55;12.17;;;1.93;;
51987;SDS011;38003;52.012;4.346;2023-03-04T00:25:24;9.47;;;2.10;;
51987;SDS011;38003;52.012;4.346;2023-03-04T00:27:52;14.50;;;2.00;;
51987;SDS011;38003;52.012;4.346;2023-03-04T00:30:20;13.23;;;2.00;;
51987;SDS011;38003;52.012;4.346;2023-03-04T00:32:48;10.87;;;1.97;;
51987;SDS011;38003;52.012;4.346;2023-03-04T00:35:18;10.47;;;1.97;;
51987;SDS011;38003;52.012;4.346;2023-03-04T00:37:46;12.60;;;2.20;;
51987;SDS011;38003;52.012;4.346;2023-03-04T00:40:14;16.13;;;2.30;;
51987;SDS011;38003;52.012;4.346;2023-03-04T00:42:42;10.40;;;1.70;;
51987;SDS011;38003;52.012;4.346;2023-03-04T00:45:11;9.67;;;1.93;;
51987;SDS011;38003;52.012;4.346;2023-03-04T00:47:39;9.63;;;1.77;;
51987;SDS011;38003;52.012;4.346;2023-03-04T00:50:08;9.90;;;2.03;;
51987;SDS011;38003;52.012;4.346;2023-03-04T00:52:38;10.70;;;1.67;;
51987;SDS011;38003;52.012;4.346;2023-03-04T00:55:07;14.47;;;1.97;;
51987;SDS011;38003;52.012;4.346;2023-03-04T00:57:35;11.27;;;1.90;;
51987;SDS011;38003;52.012;4.346;2023-03-04T01:00:04;10.00;;;1.80;;
51987;SDS011;38003;52.012;4.346;2023-03-04T01:02:32;11.40;;;1.80;;
51987;SDS011;38003;52.012;4.346;2023-03-04T01:05:00;9.00;;;2.27;;
51987;SDS011;38003;52.012;4.346;2023-03-04T01:07:28;11.30;;;2.30;;
51987;SDS011;38003;52.012;4.346;2023-03-04T01:09:58;13.27;;;1.80;;
51987;SDS011;38003;52.012;4.346;2023-03-04T01:12:26;12.37;;;1.83;;
51987;SDS011;38003;52.012;4.346;2023-03-04T01:14:54;12.37;;;1.60;;
51987;SDS011;38003;52.012;4.346;2023-03-04T01:17:23;10.83;;;2.20;;
51987;SDS011;38003;52.012;4.346;2023-03-04T01:19:51;12.57;;;2.03;;
51987;SDS011;38003;52.012;4.346;2023-03-04T01:22:19;12.60;;;1.77;;
51987;SDS011;38003;52.012;4.346;2023-03-04T01:24:47;16.07;;;1.83;;
51987;SDS011;38003;52.012;4.346;2023-03-04T01:27:17;11.87;;;1.50;;
51987;SDS011;38003;52.012;4.346;2023-03-04T01:29:45;10.93;;;2.07;;
51987;SDS011;38003;52.012;4.346;2023-03-04T01:32:13;8.50;;;1.43;;
51987;SDS011;38003;52.012;4.346;2023-03-04T01:34:42;11.80;;;1.80;;
51987;SDS011;38003;52.012;4.346;2023-03-04T01:37:10;12.70;;;2.10;;
51987;SDS011;38003;52.012;4.346;2023-03-04T01:39:39;10.60;;;1.57;;
51987;SDS011;38003;52.012;4.346;2023-03-04T01:42:09;11.73;;;1.80;;
51987;SDS011;38003;52.012;4.346;2023-03-04T01:44:41;10.13;;;1.63;;
51987;SDS011;38003;52.012;4.346;2023-03-04T01:47:10;8.97;;;1.93;;
51987;SDS011;38003;52.012;4.346;2023-03-04T01:49:38;8.50;;;1.80;;
51987;SDS011;38003;52.012;4.346;2023-03-04T01:52:09;12.47;;;1.97;;
51987;SDS011;38003;52.012;4.346;2023-03-04T01:54:38;10.27;;;1.47;;
51987;SDS011;38003;52.012;4.346;2023-03-04T01:57:12;13.50;;;2.30;;
51987;SDS011;38003;52.012;4.346;2023-03-04T01:59:44;11.07;;;2.40;;
51987;SDS011;38003;52.012;4.346;2023-03-04T02:02:12;5.47;;;1.50;;
51987;SDS011;38003;52.012;4.346;2023-03-04T02:04:41;12.37;;;1.77;;
51987;SDS011;38003;52.012;4.346;2023-03-04T02:07:09;7.73;;;1.73;;
51987;SDS011;38003;52.012;4.346;2023-03-04T02:09:38;12.70;;;1.63;;
51987;SDS011;38003;52.012;4.346;2023-03-04T02:12:06;11.97;;;1.97;;
51987;SDS011;38003;52.012;4.346;2023-03-04T02:14:34;9.67;;;1.57;;
51987;SDS011;38003;52.012;4.346;2023-03-04T02:17:08;10.23;;;1.67;;
51987;SDS011;38003;52.012;4.346;2023-03-04T02:19:39;7.87;;;1.80;;
51987;SDS011;38003;52.012;4.346;2023-03-04T02:22:09;10.97;;;1.87;;
51987;SDS011;38003;52.012;4.346;2023-03-04T02:24:38;8.67;;;1.73;;
51987;SDS011;38003;52.012;4.346;2023-03-04T02:27:09;10.87;;;1.67;;
51987;SDS011;38003;52.012;4.346;2023-03-04T02:29:37;11.13;;;2.40;;
51987;SDS011;38003;52.012;4.346;2023-03-04T02:32:08;11.77;;;2.00;;
51987;SDS011;38003;52.012;4.346;2023-03-04T02:34:37;12.93;;;2.10;;
51987;SDS011;38003;52.012;4.346;2023-03-04T02:37:11;8.87;;;1.67;;
51987;SDS011;38003;52.012;4.346;2023-03-04T02:39:40;13.07;;;2.90;;
51987;SDS011;38003;52.012;4.346;2023-03-04T02:42:10;15.37;;;1.93;;
51987;SDS011;38003;52.012;4.346;2023-03-04T02:44:39;9.13;;;1.53;;
51987;SDS011;38003;52.012;4.346;2023-03-04T02:47:09;8.57;;;1.63;;
51987;SDS011;38003;52.012;4.346;2023-03-04T02:49:38;10.50;;;2.30;;
51987;SDS011;38003;52.012;4.346;2023-03-04T02:52:07;10.50;;;1.73;;
51987;SDS011;38003;52.012;4.346;2023-03-04T02:54:37;9.73;;;2.00;;
51987;SDS011;38003;52.012;4.346;2023-03-04T02:57:06;10.00;;;1.50;;
51987;SDS011;38003;52.012;4.346;2023-03-04T02:59:36;13.53;;;1.87;;
51987;SDS011;38003;52.012;4.346;2023-03-04T03:02:04;9.17;;;1.47;;
51987;SDS011;38003;52.012;4.346;2023-03-04T03:04:33;8.47;;;1.77;;
51987;SDS011;38003;52.012;4.346;2023-03-04T03:07:04;4.40;;;1.10;;
51987;SDS011;38003;52.012;4.346;2023-03-04T03:09:32;13.37;;;2.03;;
51987;SDS011;38003;52.012;4.346;2023-03-04T03:12:00;10.47;;;1.90;;
51987;SDS011;38003;52.012;4.346;2023-03-04T03:14:28;10.20;;;1.60;;
51987;SDS011;38003;52.012;4.346;2023-03-04T03:16:58;6.90;;;1.40;;
51987;SDS011;38003;52.012;4.346;2023-03-04T03:19:26;7.07;;;1.60;;
51987;SDS011;38003;52.012;4.346;2023-03-04T03:21:54;10.43;;;1.50;;
51987;SDS011;38003;52.012;4.346;2023-03-04T03:24:23;9.40;;;1.47;;
51987;SDS011;38003;52.012;4.346;2023-03-04T03:26:51;7.03;;;1.50;;
51987;SDS011;38003;52.012;4.346;2023-03-04T03:29:19;8.93;;;1.63;;
51987;SDS011;38003;52.012;4.346;2023-03-04T03:31:48;7.53;;;1.23;;
51987;SDS011;38003;52.012;4.346;2023-03-04T03:34:17;12.60;;;1.70;;
51987;SDS011;38003;52.012;4.346;2023-03-04T03:36:46;6.20;;;1.60;;
51987;SDS011;38003;52.012;4.346;2023-03-04T03:39:14;10.37;;;1.80;;
51987;SDS011;38003;52.012;4.346;2023-03-04T03:41:42;8.00;;;1.50;;
51987;SDS011;38003;52.012;4.346;2023-03-04T03:44:10;11.87;;;2.23;;
51987;SDS011;38003;52.012;4.346;2023-03-04T03:46:39;9.67;;;1.33;;
51987;SDS011;38003;52.012;4.346;2023-03-04T03:49:07;5.03;;;2.00;;
51987;SDS011;38003;52.012;4.346;2023-03-04T03:51:37;5.47;;;1.27;;
51987;SDS011;38003;52.012;4.346;2023-03-04T03:54:05;10.30;;;1.30;;
51987;SDS011;38003;52.012;4.346;2023-03-04T03:56:33;11.97;;;1.70;;
51987;SDS011;38003;52.012;4.346;2023-03-04T03:59:01;10.83;;;1.80;;
51987;SDS011;38003;52.012;4.346;2023-03-04T04:01:29;10.43;;;1.43;;
51987;SDS011;38003;52.012;4.346;2023-03-04T04:03:58;7.73;;;1.63;;
51987;SDS011;38003;52.012;4.346;2023-03-04T04:06:27;10.10;;;1.60;;
51987;SDS011;38003;52.012;4.346;2023-03-04T04:08:56;11.43;;;1.40;;
51987;SDS011;38003;52.012;4.346;2023-03-04T04:11:25;6.37;;;1.70;;
51987;SDS011;38003;52.012;4.346;2023-03-04T04:13:53;7.90;;;1.17;;
51987;SDS011;38003;52.012;4.346;2023-03-04T04:16:21;8.47;;;1.73;;
51987;SDS011;38003;52.012;4.346;2023-03-04T04:18:50;7.47;;;1.20;;
51987;SDS011;38003;52.012;4.346;2023-03-04T04:21:18;6.30;;;1.20;;
51987;SDS011;38003;52.012;4.346;2023-03-04T04:23:46;5.57;;;1.40;;
51987;SDS011;38003;52.012;4.346;2023-03-04T04:26:16;10.40;;;1.50;;
51987;SDS011;38003;52.012;4.346;2023-03-04T04:28:44;6.00;;;1.37;;
51987;SDS011;38003;52.012;4.346;2023-03-04T04:31:12;5.60;;;1.37;;
51987;SDS011;38003;52.012;4.346;2023-03-04T04:33:41;5.33;;;1.50;;
51987;SDS011;38003;52.012;4.346;2023-03-04T04:36:11;8.17;;;1.30;;
51987;SDS011;38003;52.012;4.346;2023-03-04T04:38:40;6.60;;;1.23;;
51987;SDS011;38003;52.012;4.346;2023-03-04T04:41:11;7.53;;;1.50;;
51987;SDS011;38003;52.012;4.346;2023-03-04T04:43:44;9.20;;;1.43;;
51987;SDS011;38003;52.012;4.346;2023-03-04T04:46:12;7.40;;;1.73;;
51987;SDS011;38003;52.012;4.346;2023-03-04T04:48:41;6.83;;;1.47;;
51987;SDS011;38003;52.012;4.346;2023-03-04T04:51:09;9.00;;;1.83;;
51987;SDS011;38003;52.012;4.346;2023-03-04T04:53:37;6.57;;;1.63;;
51987;SDS011;38003;52.012;4.346;2023-03-04T04:56:09;8.80;;;1.60;;
51987;SDS011;38003;52.012;4.346;2023-03-04T04:58:39;10.57;;;2.13;;
51987;SDS011;38003;52.012;4.346;2023-03-04T05:01:09;7.83;;;1.67;;
51987;SDS011;38003;52.012;4.346;2023-03-04T05:03:37;10.60;;;1.60;;
51987;SDS011;38003;52.012;4.346;2023-03-04T05:06:06;8.53;;;1.37;;
51987;SDS011;38003;52.012;4.346;2023-03-04T05:08:35;8.07;;;1.90;;
51987;SDS011;38003;52.012;4.346;2023-03-04T05:11:03;11.10;;;1.50;;
51987;SDS011;38003;52.012;4.346;2023-03-04T05:13:32;10.73;;;1.53;;
51987;SDS011;38003;52.012;4.346;2023-03-04T05:16:00;7.93;;;2.90;;
51987;SDS011;38003;52.012;4.346;2023-03-04T05:18:30;7.37;;;1.63;;
51987;SDS011;38003;52.012;4.346;2023-03-04T05:20:59;7.40;;;1.40;;
51987;SDS011;38003;52.012;4.346;2023-03-04T05:23:30;9.20;;;1.43;;
51987;SDS011;38003;52.012;4.346;2023-03-04T05:25:58;8.10;;;1.77;;
51987;SDS011;38003;52.012;4.346;2023-03-04T05:28:26;8.87;;;1.50;;
51987;SDS011;38003;52.012;4.346;2023-03-04T05:30:54;6.97;;;1.93;;
51987;SDS011;38003;52.012;4.346;2023-03-04T05:33:23;7.27;;;1.53;;
51987;SDS011;38003;52.012;4.346;2023-03-04T05:35:52;7.87;;;1.67;;
51987;SDS011;38003;52.012;4.346;2023-03-04T05:38:21;7.47;;;1.60;;
51987;SDS011;38003;52.012;4.346;2023-03-04T05:40:57;8.03;;;1.77;;
51987;SDS011;38003;52.012;4.346;2023-03-04T05:43:25;10.67;;;1.30;;
51987;SDS011;38003;52.012;4.346;2023-03-04T05:45:54;6.07;;;1.20;;
51987;SDS011;38003;52.012;4.346;2023-03-04T05:48:22;12.07;;;1.77;;
51987;SDS011;38003;52.012;4.346;2023-03-04T05:50:55;8.83;;;1.30;;
51987;SDS011;38003;52.012;4.346;2023-03-04T05:53:23;7.93;;;1.37;;
51987;SDS011;38003;52.012;4.346;2023-03-04T05:55:52;8.63;;;1.60;;
51987;SDS011;38003;52.012;4.346;2023-03-04T05:58:20;10.10;;;1.77;;
51987;SDS011;38003;52.012;4.346;2023-03-04T06:00:49;11.13;;;2.00;;
51987;SDS011;38003;52.012;4.346;2023-03-04T06:03:18;8.33;;;1.57;;
51987;SDS011;38003;52.012;4.346;2023-03-04T06:05:46;11.30;;;1.70;;
51987;SDS011;38003;52.012;4.346;2023-03-04T06:08:16;9.60;;;1.53;;
51987;SDS011;38003;52.012;4.346;2023-03-04T06:10:44;10.80;;;1.63;;
51987;SDS011;38003;52.012;4.346;2023-03-04T06:13:12;7.83;;;1.33;;
51987;SDS011;38003;52.012;4.346;2023-03-04T06:15:40;10.53;;;1.80;;
51987;SDS011;38003;52.012;4.346;2023-03-04T06:18:09;9.47;;;2.00;;
51987;SDS011;38003;52.012;4.346;2023-03-04T06:20:37;8.53;;;1.33;;
51987;SDS011;38003;52.012;4.346;2023-03-04T06:23:06;8.50;;;1.43;;
51987;SDS011;38003;52.012;4.346;2023-03-04T06:25:35;6.37;;;1.50;;
51987;SDS011;38003;52.012;4.346;2023-03-04T06:28:04;7.20;;;1.30;;
51987;SDS011;38003;52.012;4.346;2023-03-04T06:30:32;8.80;;;1.23;;
51987;SDS011;38003;52.012;4.346;2023-03-04T06:33:01;10.50;;;1.50;;
51987;SDS011;38003;52.012;4.346;2023-03-04T06:35:29;8.80;;;1.57;;
51987;SDS011;38003;52.012;4.346;2023-03-04T06:37:57;5.23;;;1.20;;
51987;SDS011;38003;52.012;4.346;2023-03-04T06:40:25;6.60;;;1.50;;
51987;SDS011;38003;52.012;4.346;2023-03-04T06:42:55;5.73;;;1.53;;
51987;SDS011;38003;52.012;4.346;2023-03-04T06:45:23;6.33;;;1.57;;
51987;SDS011;38003;52.012;4.346;2023-03-04T06:47:51;3.67;;;1.20;;
51987;SDS011;38003;52.012;4.346;2023-03-04T06:50:20;6.13;;;1.67;;
51987;SDS011;38003;52.012;4.346;2023-03-04T06:52:48;11.83;;;1.53;;
51987;SDS011;38003;52.012;4.346;2023-03-04T06:55:16;10.70;;;1.37;;
51987;SDS011;38003;52.012;4.346;2023-03-04T06:57:44;10.63;;;2.87;;
51987;SDS011;38003;52.012;4.346;2023-03-04T07:02:44;6.70;;;1.30;;
51987;SDS011;38003;52.012;4.346;2023-03-04T07:05:13;8.53;;;1.87;;
51987;SDS011;38003;52.012;4.346;2023-03-04T07:07:41;9.00;;;1.70;;
51987;SDS011;38003;52.012;4.346;2023-03-04T07:10:09;5.00;;;1.27;;
51987;SDS011;38003;52.012;4.346;2023-03-04T07:12:38;5.13;;;1.67;;
51987;SDS011;38003;52.012;4.346;2023-03-04T07:15:06;5.50;;;1.30;;
51987;SDS011;38003;52.012;4.346;2023-03-04T07:17:35;5.00;;;1.20;;
51987;SDS011;38003;52.012;4.346;2023-03-04T07:20:05;7.67;;;1.57;;
51987;SDS011;38003;52.012;4.346;2023-03-04T07:22:33;3.70;;;0.93;;
51987;SDS011;38003;52.012;4.346;2023-03-04T07:25:02;6.03;;;1.63;;
51987;SDS011;38003;52.012;4.346;2023-03-04T07:27:30;2.87;;;0.73;;
51987;SDS011;38003;52.012;4.346;2023-03-04T07:29:58;2.40;;;0.70;;
51987;SDS011;38003;52.012;4.346;2023-03-04T07:32:27;5.10;;;1.00;;
51987;SDS011;38003;52.012;4.346;2023-03-04T07:34:55;2.27;;;0.70;;
51987;SDS011;38003;52.012;4.346;2023-03-04T07:37:24;3.43;;;0.70;;
51987;SDS011;38003;52.012;4.346;2023-03-04T07:39:53;2.77;;;0.63;;
51987;SDS011;38003;52.012;4.346;2023-03-04T07:42:21;4.33;;;1.03;;
51987;SDS011;38003;52.012;4.346;2023-03-04T07:44:53;2.40;;;0.70;;
51987;SDS011;38003;52.012;4.346;2023-03-04T07:47:21;2.60;;;0.70;;
51987;SDS011;38003;52.012;4.346;2023-03-04T07:49:49;3.00;;;0.67;;
51987;SDS011;38003;52.012;4.346;2023-03-04T07:52:18;3.30;;;0.53;;
51987;SDS011;38003;52.012;4.346;2023-03-04T07:54:48;3.03;;;0.57;;
51987;SDS011;38003;52.012;4.346;2023-03-04T07:57:16;3.73;;;0.50;;
51987;SDS011;38003;52.012;4.346;2023-03-04T07:59:44;1.73;;;0.40;;
51987;SDS011;38003;52.012;4.346;2023-03-04T08:02:12;4.70;;;0.80;;
51987;SDS011;38003;52.012;4.346;2023-03-04T08:04:41;5.87;;;0.60;;
51987;SDS011;38003;52.012;4.346;2023-03-04T08:07:09;1.90;;;0.67;;
51987;SDS011;38003;52.012;4.346;2023-03-04T08:09:38;5.13;;;0.70;;
51987;SDS011;38003;52.012;4.346;2023-03-04T08:12:07;3.13;;;0.53;;
51987;SDS011;38003;52.012;4.346;2023-03-04T08:14:36;5.13;;;0.77;;
51987;SDS011;38003;52.012;4.346;2023-03-04T08:17:04;2.03;;;0.50;;
51987;SDS011;38003;52.012;4.346;2023-03-04T08:19:32;4.23;;;0.50;;
51987;SDS011;38003;52.012;4.346;2023-03-04T08:22:00;2.33;;;0.67;;
51987;SDS011;38003;52.012;4.346;2023-03-04T08:24:29;1.67;;;0.50;;
51987;SDS011;38003;52.012;4.346;2023-03-04T08:26:57;3.73;;;0.70;;
51987;SDS011;38003;52.012;4.346;2023-03-04T08:29:26;2.80;;;0.70;;
51987;SDS011;38003;52.012;4.346;2023-03-04T08:31:55;3.23;;;0.60;;
51987;SDS011;38003;52.012;4.346;2023-03-04T08:34:24;4.03;;;0.70;;
51987;SDS011;38003;52.012;4.346;2023-03-04T08:36:53;1.50;;;0.50;;
51987;SDS011;38003;52.012;4.346;2023-03-04T08:39:22;5.10;;;1.13;;
51987;SDS011;38003;52.012;4.346;2023-03-04T08:41:50;5.00;;;0.80;;
51987;SDS011;38003;52.012;4.346;2023-03-04T08:44:18;4.47;;;0.77;;
51987;SDS011;38003;52.012;4.346;2023-03-04T08:46:48;2.80;;;1.00;;
51987;SDS011;38003;52.012;4.346;2023-03-04T08:49:16;4.30;;;0.60;;
51987;SDS011;38003;52.012;4.346;2023-03-04T08:51:44;7.57;;;1.23;;
51987;SDS011;38003;52.012;4.346;2023-03-04T08:54:13;2.47;;;0.70;;
51987;SDS011;38003;52.012;4.346;2023-03-04T08:56:41;5.00;;;0.90;;
51987;SDS011;38003;52.012;4.346;2023-03-04T08:59:09;2.53;;;0.97;;
51987;SDS011;38003;52.012;4.346;2023-03-04T09:01:38;2.93;;;0.90;;
51987;SDS011;38003;52.012;4.346;2023-03-04T09:04:07;3.50;;;0.70;;
51987;SDS011;38003;52.012;4.346;2023-03-04T09:06:35;5.37;;;0.90;;
51987;SDS011;38003;52.012;4.346;2023-03-04T09:09:04;4.57;;;0.93;;
51987;SDS011;38003;52.012;4.346;2023-03-04T09:11:32;4.30;;;0.90;;
51987;SDS011;38003;52.012;4.346;2023-03-04T09:14:00;4.03;;;0.80;;
51987;SDS011;38003;52.012;4.346;2023-03-04T09:16:29;4.23;;;0.97;;
51987;SDS011;38003;52.012;4.346;2023-03-04T09:18:57;4.90;;;1.03;;
51987;SDS011;38003;52.012;4.346;2023-03-04T09:21:28;2.73;;;0.80;;
51987;SDS011;38003;52.012;4.346;2023-03-04T09:23:56;3.13;;;0.93;;
51987;SDS011;38003;52.012;4.346;2023-03-04T09:26:25;4.83;;;0.90;;
51987;SDS011;38003;52.012;4.346;2023-03-04T09:28:55;3.63;;;1.77;;
51987;SDS011;38003;52.012;4.346;2023-03-04T09:31:24;5.33;;;4.83;;
51987;SDS011;38003;52.012;4.346;2023-03-04T09:33:53;5.80;;;5.57;;
51987;SDS011;38003;52.012;4.346;2023-03-04T09:36:22;8.77;;;8.20;;
51987;SDS011;38003;52.012;4.346;2023-03-04T09:38:51;8.13;;;7.53;;
51987;SDS011;38003;52.012;4.346;2023-03-04T09:41:20;8.83;;;8.37;;
51987;SDS011;38003;52.012;4.346;2023-03-04T09:43:49;8.70;;;8.10;;
51987;SDS011;38003;52.012;4.346;2023-03-04T09:46:18;8.03;;;5.97;;
51987;SDS011;38003;52.012;4.346;2023-03-04T09:48:50;6.17;;;5.67;;
51987;SDS011;38003;52.012;4.346;2023-03-04T09:51:20;5.90;;;1.70;;
51987;SDS011;38003;52.012;4.346;2023-03-04T09:53:55;6.03;;;1.50;;
51987;SDS011;38003;52.012;4.346;2023-03-04T09:56:25;3.47;;;1.30;;
51987;SDS011;38003;52.012;4.346;2023-03-04T09:58:56;5.80;;;1.10;;
51987;SDS011;38003;52.012;4.346;2023-03-04T10:01:28;2.73;;;1.07;;
51987;SDS011;38003;52.012;4.346;2023-03-04T10:03:58;3.50;;;1.57;;
51987;SDS011;38003;52.012;4.346;2023-03-04T10:06:29;4.22;;;1.00;;
51987;SDS011;38003;52.012;4.346;2023-03-04T10:09:00;3.13;;;1.10;;
51987;SDS011;38003;52.012;4.346;2023-03-04T10:11:31;2.57;;;1.00;;
51987;SDS011;38003;52.012;4.346;2023-03-04T10:14:10;1.87;;;0.90;;
51987;SDS011;38003;52.012;4.346;2023-03-04T10:16:43;3.93;;;0.80;;
51987;SDS011;38003;52.012;4.346;2023-03-04T10:19:18;4.67;;;1.20;;
51987;SDS011;38003;52.012;4.346;2023-03-04T10:21:50;3.10;;;0.90;;
51987;SDS011;38003;52.012;4.346;2023-03-04T10:24:21;2.33;;;0.70;;
51987;SDS011;38003;52.012;4.346;2023-03-04T10:26:51;2.73;;;0.90;;
51987;SDS011;38003;52.012;4.346;2023-03-04T10:29:21;6.93;;;1.37;;
51987;SDS011;38003;52.012;4.346;2023-03-04T10:31:50;3.70;;;3.40;;
51987;SDS011;38003;52.012;4.346;2023-03-04T10:34:21;5.30;;;3.93;;
51987;SDS011;38003;52.012;4.346;2023-03-04T10:36:52;7.80;;;4.90;;
51987;SDS011;38003;52.012;4.346;2023-03-04T10:39:24;7.57;;;6.63;;
51987;SDS011;38003;52.012;4.346;2023-03-04T10:41:54;11.80;;;10.60;;
51987;SDS011;38003;52.012;4.346;2023-03-04T10:44:23;24.87;;;23.47;;
51987;SDS011;38003;52.012;4.346;2023-03-04T10:46:52;16.13;;;15.03;;
51987;SDS011;38003;52.012;4.346;2023-03-04T10:49:21;7.43;;;6.77;;
51987;SDS011;38003;52.012;4.346;2023-03-04T10:51:52;8.43;;;5.80;;
51987;SDS011;38003;52.012;4.346;2023-03-04T10:54:25;7.10;;;2.50;;
51987;SDS011;38003;52.012;4.346;2023-03-04T10:56:57;7.60;;;1.93;;
51987;SDS011;38003;52.012;4.346;2023-03-04T11:02:20;5.33;;;2.57;;
51987;SDS011;38003;52.012;4.346;2023-03-04T11:04:49;5.47;;;2.73;;
51987;SDS011;38003;52.012;4.346;2023-03-04T11:07:19;5.77;;;1.70;;
51987;SDS011;38003;52.012;4.346;2023-03-04T11:09:48;5.87;;;1.60;;
51987;SDS011;38003;52.012;4.346;2023-03-04T11:12:18;7.60;;;2.10;;
51987;SDS011;38003;52.012;4.346;2023-03-04T11:14:47;4.47;;;1.30;;
51987;SDS011;38003;52.012;4.346;2023-03-04T11:17:17;4.80;;;1.13;;
51987;SDS011;38003;52.012;4.346;2023-03-04T11:19:47;3.70;;;1.00;;
51987;SDS011;38003;52.012;4.346;2023-03-04T11:22:16;6.23;;;1.23;;
51987;SDS011;38003;52.012;4.346;2023-03-04T11:24:46;5.83;;;1.17;;
51987;SDS011;38003;52.012;4.346;2023-03-04T11:27:19;7.17;;;1.47;;
51987;SDS011;38003;52.012;4.346;2023-03-04T11:29:50;5.13;;;1.03;;
51987;SDS011;38003;52.012;4.346;2023-03-04T11:32:21;4.23;;;1.30;;
51987;SDS011;38003;52.012;4.346;2023-03-04T11:34:52;3.13;;;0.83;;
51987;SDS011;38003;52.012;4.346;2023-03-04T11:37:23;4.63;;;1.10;;
51987;SDS011;38003;52.012;4.346;2023-03-04T11:39:54;4.93;;;1.47;;
51987;SDS011;38003;52.012;4.346;2023-03-04T11:42:27;4.00;;;1.00;;
51987;SDS011;38003;52.012;4.346;2023-03-04T11:44:58;4.53;;;0.97;;
51987;SDS011;38003;52.012;4.346;2023-03-04T11:47:39;2.23;;;0.90;;
51987;SDS011;38003;52.012;4.346;2023-03-04T11:50:21;2.70;;;0.80;;
51987;SDS011;38003;52.012;4.346;2023-03-04T11:53:03;3.70;;;0.83;;
51987;SDS011;38003;52.012;4.346;2023-03-04T11:55:37;2.87;;;1.20;;
51987;SDS011;38003;52.012;4.346;2023-03-04T11:58:13;5.10;;;1.17;;
51987;SDS011;38003;52.012;4.346;2023-03-04T12:00:45;5.17;;;1.50;;
51987;SDS011;38003;52.012;4.346;2023-03-04T12:03:26;5.60;;;1.20;;
51987;SDS011;38003;52.012;4.346;2023-03-04T12:06:01;3.53;;;0.80;;
51987;SDS011;38003;52.012;4.346;2023-03-04T12:11:21;3.97;;;1.50;;
51987;SDS011;38003;52.012;4.346;2023-03-04T12:13:56;3.67;;;1.03;;
51987;SDS011;38003;52.012;4.346;2023-03-04T12:16:29;4.83;;;0.60;;
51987;SDS011;38003;52.012;4.346;2023-03-04T12:19:04;2.57;;;0.70;;
51987;SDS011;38003;52.012;4.346;2023-03-04T12:21:45;3.67;;;1.03;;
51987;SDS011;38003;52.012;4.346;2023-03-04T12:24:22;4.00;;;1.57;;
51987;SDS011;38003;52.012;4.346;2023-03-04T12:26:53;3.47;;;1.53;;
51987;SDS011;38003;52.012;4.346;2023-03-04T12:29:25;4.10;;;3.70;;
51987;SDS011;38003;52.012;4.346;2023-03-04T12:31:56;10.70;;;10.00;;
51987;SDS011;38003;52.012;4.346;2023-03-04T12:37:22;12.83;;;12.27;;
51987;SDS011;38003;52.012;4.346;2023-03-04T12:39:58;17.37;;;16.47;;
51987;SDS011;38003;52.012;4.346;2023-03-04T12:42:34;10.03;;;9.53;;
51987;SDS011;38003;52.012;4.346;2023-03-04T12:45:08;13.97;;;13.37;;
51987;SDS011;38003;52.012;4.346;2023-03-04T12:47:45;20.17;;;19.10;;
51987;SDS011;38003;52.012;4.346;2023-03-04T12:50:24;15.00;;;14.20;;
51987;SDS011;38003;52.012;4.346;2023-03-04T12:52:55;5.50;;;4.50;;
51987;SDS011;38003;52.012;4.346;2023-03-04T12:55:29;10.68;;;9.98;;
51987;SDS011;38003;52.012;4.346;2023-03-04T12:58:01;12.27;;;11.37;;
51987;SDS011;38003;52.012;4.346;2023-03-04T13:00:33;10.00;;;7.97;;
51987;SDS011;38003;52.012;4.346;2023-03-04T13:03:09;11.50;;;10.30;;
51987;SDS011;38003;52.012;4.346;2023-03-04T13:05:43;6.60;;;4.97;;
51987;SDS011;38003;52.012;4.346;2023-03-04T13:08:20;6.23;;;3.63;;
51987;SDS011;38003;52.012;4.346;2023-03-04T13:10:52;6.80;;;4.00;;
51987;SDS011;38003;52.012;4.346;2023-03-04T13:13:34;9.00;;;4.40;;
51987;SDS011;38003;52.012;4.346;2023-03-04T13:16:04;24.33;;;23.00;;
51987;SDS011;38003;52.012;4.346;2023-03-04T13:18:33;12.87;;;11.90;;
51987;SDS011;38003;52.012;4.346;2023-03-04T13:21:05;3.17;;;1.60;;
51987;SDS011;38003;52.012;4.346;2023-03-04T13:23:34;7.07;;;1.40;;
51987;SDS011;38003;52.012;4.346;2023-03-04T13:26:19;6.37;;;1.40;;
51987;SDS011;38003;52.012;4.346;2023-03-04T13:28:52;4.50;;;1.23;;
51987;SDS011;38003;52.012;4.346;2023-03-04T13:31:23;7.57;;;1.80;;
51987;SDS011;38003;52.012;4.346;2023-03-04T13:33:56;6.07;;;1.37;;
51987;SDS011;38003;52.012;4.346;2023-03-04T13:36:29;7.37;;;1.63;;
51987;SDS011;38003;52.012;4.346;2023-03-04T13:38:58;8.93;;;1.80;;
51987;SDS011;38003;52.012;4.346;2023-03-04T13:41:30;7.60;;;1.80;;
51987;SDS011;38003;52.012;4.346;2023-03-04T13:43:59;11.73;;;1.90;;
51987;SDS011;38003;52.012;4.346;2023-03-04T13:46:30;6.67;;;1.20;;
51987;SDS011;38003;52.012;4.346;2023-03-04T13:49:06;6.30;;;1.57;;
51987;SDS011;38003;52.012;4.346;2023-03-04T13:51:36;6.20;;;1.27;;
51987;SDS011;38003;52.012;4.346;2023-03-04T13:54:06;5.30;;;1.90;;
51987;SDS011;38003;52.012;4.346;2023-03-04T13:56:39;9.10;;;1.83;;
51987;SDS011;38003;52.012;4.346;2023-03-04T13:59:21;6.10;;;1.37;;
51987;SDS011;38003;52.012;4.346;2023-03-04T14:01:55;8.03;;;2.00;;
51987;SDS011;38003;52.012;4.346;2023-03-04T14:04:32;8.63;;;1.63;;
51987;SDS011;38003;52.012;4.346;2023-03-04T14:07:01;10.60;;;2.27;;
51987;SDS011;38003;52.012;4.346;2023-03-04T14:09:30;9.57;;;1.50;;
51987;SDS011;38003;52.012;4.346;2023-03-04T14:11:59;7.90;;;1.93;;
51987;SDS011;38003;52.012;4.346;2023-03-04T14:14:31;9.97;;;2.00;;
51987;SDS011;38003;52.012;4.346;2023-03-04T14:17:04;7.33;;;1.73;;
51987;SDS011;38003;52.012;4.346;2023-03-04T14:19:35;12.40;;;2.07;;
51987;SDS011;38003;52.012;4.346;2023-03-04T14:22:17;9.83;;;1.93;;
51987;SDS011;38003;52.012;4.346;2023-03-04T14:24:57;9.23;;;1.93;;
51987;SDS011;38003;52.012;4.346;2023-03-04T14:27:25;9.20;;;1.60;;
51987;SDS011;38003;52.012;4.346;2023-03-04T14:29:54;11.33;;;2.00;;
51987;SDS011;38003;52.012;4.346;2023-03-04T14:32:24;12.03;;;1.97;;
51987;SDS011;38003;52.012;4.346;2023-03-04T14:34:54;9.00;;;1.73;;
51987;SDS011;38003;52.012;4.346;2023-03-04T14:37:24;10.17;;;2.37;;
51987;SDS011;38003;52.012;4.346;2023-03-04T14:39:53;10.07;;;1.97;;
51987;SDS011;38003;52.012;4.346;2023-03-04T14:42:23;12.10;;;1.93;;
51987;SDS011;38003;52.012;4.346;2023-03-04T14:44:51;7.17;;;1.73;;
51987;SDS011;38003;52.012;4.346;2023-03-04T14:47:22;8.97;;;1.87;;
51987;SDS011;38003;52.012;4.346;2023-03-04T14:49:52;4.67;;;1.17;;
51987;SDS011;38003;52.012;4.346;2023-03-04T14:52:35;6.80;;;1.60;;
51987;SDS011;38003;52.012;4.346;2023-03-04T14:55:16;7.83;;;1.60;;
51987;SDS011;38003;52.012;4.346;2023-03-04T14:57:45;7.03;;;1.40;;
51987;SDS011;38003;52.012;4.346;2023-03-04T15:00:23;14.00;;;2.10;;
51987;SDS011;38003;52.012;4.346;2023-03-04T15:02:52;10.50;;;1.90;;
51987;SDS011;38003;52.012;4.346;2023-03-04T15:05:24;14.27;;;2.53;;
51987;SDS011;38003;52.012;4.346;2023-03-04T15:07:53;9.07;;;1.87;;
51987;SDS011;38003;52.012;4.346;2023-03-04T15:10:23;10.07;;;1.93;;